createdAt,value
2018-03-22T00:01:23.699Z,17.70
2018-03-22T00:03:51.304Z,18.30
2018-03-22T00:06:19.645Z,17.30
2018-03-22T00:08:47.222Z,17.30
2018-03-22T00:11:14.817Z,17.90
2018-03-22T00:13:42.396Z,17.80
2018-03-22T00:16:09.974Z,17.90
2018-03-22T00:18:38.347Z,19.00
2018-03-22T00:21:05.933Z,19.00
2018-03-22T00:23:33.518Z,18.10
2018-03-22T00:26:01.976Z,18.00
2018-03-22T00:28:29.543Z,18.00
2018-03-22T00:30:57.209Z,18.70
2018-03-22T00:33:24.808Z,18.50
2018-03-22T00:35:52.505Z,18.50
2018-03-22T00:38:20.069Z,18.40
2018-03-22T00:40:48.447Z,18.40
2018-03-22T00:43:16.021Z,18.40
2018-03-22T00:45:43.588Z,19.20
2018-03-22T00:48:11.192Z,19.10
2018-03-22T00:50:39.541Z,18.80
2018-03-22T00:53:07.117Z,18.90
2018-03-22T00:55:34.727Z,18.50
2018-03-22T00:58:03.083Z,18.80
2018-03-22T01:00:30.660Z,18.80
2018-03-22T01:02:58.257Z,18.70
2018-03-22T01:05:26.633Z,19.50
2018-03-22T01:07:54.286Z,19.10
2018-03-22T01:10:21.887Z,18.60
2018-03-22T01:12:49.535Z,18.80
2018-03-22T01:15:17.117Z,18.70
2018-03-22T01:17:44.785Z,18.50
2018-03-22T01:20:12.347Z,18.90
2018-03-22T01:22:39.976Z,18.60
2018-03-22T01:25:08.344Z,18.40
2018-03-22T01:27:35.929Z,18.30
2018-03-22T01:30:04.273Z,18.40
2018-03-22T01:32:31.877Z,18.40
2018-03-22T01:34:59.460Z,18.40
2018-03-22T01:37:27.035Z,18.40
2018-03-22T01:39:55.422Z,18.10
2018-03-22T01:42:23.002Z,18.10
2018-03-22T01:44:50.577Z,18.30
2018-03-22T01:47:19.008Z,18.40
2018-03-22T01:49:47.010Z,18.40
2018-03-22T01:52:14.586Z,18.50
2018-03-22T01:54:42.181Z,18.50
2018-03-22T01:57:09.765Z,18.90
2018-03-22T01:59:38.110Z,19.20
2018-03-22T02:02:05.715Z,18.90
2018-03-22T02:04:33.308Z,18.90
2018-03-22T02:07:01.657Z,18.70
2018-03-22T02:09:29.251Z,18.70
2018-03-22T02:11:56.824Z,19.10
2018-03-22T02:14:24.395Z,18.60
2018-03-22T02:16:52.001Z,18.60
2018-03-22T02:19:20.340Z,19.00
2018-03-22T02:21:48.016Z,19.00
2018-03-22T02:24:15.655Z,18.80
2018-03-22T02:26:43.256Z,18.90
2018-03-22T02:29:10.834Z,18.90
2018-03-22T02:31:38.445Z,19.10
2018-03-22T02:34:06.797Z,19.10
2018-03-22T02:36:34.381Z,19.10
2018-03-22T02:39:01.982Z,19.20
2018-03-22T02:41:29.589Z,19.30
2018-03-22T02:43:57.165Z,20.00
2018-03-22T02:46:24.774Z,19.30
2018-03-22T02:48:52.346Z,19.30
2018-03-22T02:51:19.923Z,19.30
2018-03-22T02:53:47.522Z,19.30
2018-03-22T02:56:15.877Z,19.30
2018-03-22T02:58:43.446Z,19.30
2018-03-22T03:01:11.058Z,19.30
2018-03-22T03:03:39.430Z,19.40
2018-03-22T03:06:06.990Z,19.40
2018-03-22T03:08:34.659Z,19.40
2018-03-22T03:11:02.224Z,19.40
2018-03-22T03:13:29.906Z,19.60
2018-03-22T03:15:57.513Z,19.50
2018-03-22T03:18:25.857Z,20.00
2018-03-22T03:20:53.432Z,19.70
2018-03-22T03:23:21.043Z,19.50
2018-03-22T03:25:48.622Z,19.60
2018-03-22T03:28:16.212Z,19.60
2018-03-22T03:30:44.591Z,19.70
2018-03-22T03:33:12.927Z,19.80
2018-03-22T03:35:40.512Z,19.80
2018-03-22T03:38:08.109Z,19.60
2018-03-22T03:40:35.688Z,19.70
2018-03-22T03:43:03.266Z,19.80
2018-03-22T03:45:30.868Z,19.90
2018-03-22T03:47:58.448Z,19.40
2018-03-22T03:50:26.021Z,19.20
2018-03-22T03:52:53.620Z,19.30
2018-03-22T03:55:21.192Z,19.40
2018-03-22T03:57:48.769Z,19.40
2018-03-22T04:00:16.367Z,19.30
2018-03-22T04:02:44.014Z,19.30
2018-03-22T04:05:11.565Z,19.10
2018-03-22T04:07:39.201Z,19.10
2018-03-22T04:10:07.601Z,19.30
2018-03-22T04:12:36.048Z,19.30
2018-03-22T04:15:03.697Z,19.30
2018-03-22T04:17:31.297Z,18.70
2018-03-22T04:19:58.973Z,19.00
2018-03-22T04:22:26.574Z,19.30
2018-03-22T04:24:54.161Z,19.30
2018-03-22T04:27:22.507Z,19.60
2018-03-22T04:29:50.396Z,19.70
2018-03-22T04:32:17.963Z,19.70
2018-03-22T04:34:45.539Z,19.80
2018-03-22T04:37:13.137Z,20.00
2018-03-22T04:39:40.745Z,19.80
2018-03-22T04:42:08.321Z,19.70
2018-03-22T04:44:35.931Z,19.70
2018-03-22T04:47:03.540Z,19.80
2018-03-22T04:49:31.889Z,20.00
2018-03-22T04:51:59.492Z,20.00
2018-03-22T04:54:27.316Z,20.00
2018-03-22T04:56:54.956Z,20.20
2018-03-22T04:59:22.566Z,20.10
2018-03-22T05:01:50.158Z,20.00
2018-03-22T05:04:17.727Z,20.20
2018-03-22T05:06:53.408Z,20.40
2018-03-22T05:09:21.806Z,20.40
2018-03-22T05:11:49.425Z,20.40
2018-03-22T05:14:17.840Z,20.70
2018-03-22T05:16:45.423Z,20.70
2018-03-22T05:19:13.008Z,20.50
2018-03-22T05:21:40.623Z,20.20
2018-03-22T05:24:08.208Z,20.20
2018-03-22T05:26:35.792Z,20.10
2018-03-22T05:29:04.839Z,19.90
2018-03-22T05:31:32.427Z,20.00
2018-03-22T05:34:00.061Z,20.00
2018-03-22T05:36:27.766Z,20.10
2018-03-22T05:38:55.408Z,20.00
2018-03-22T05:41:23.032Z,20.00
2018-03-22T05:43:50.648Z,20.00
2018-03-22T05:46:18.990Z,20.00
2018-03-22T05:48:46.567Z,20.00
2018-03-22T05:51:14.199Z,20.00
2018-03-22T05:53:41.795Z,19.90
2018-03-22T05:56:09.386Z,20.00
2018-03-22T05:58:37.066Z,20.00
2018-03-22T06:01:04.654Z,19.80
2018-03-22T06:03:32.338Z,20.10
2018-03-22T06:06:00.712Z,20.00
2018-03-22T06:08:28.286Z,20.00
2018-03-22T06:10:55.964Z,20.00
2018-03-22T06:13:23.585Z,19.90
2018-03-22T06:15:51.165Z,19.80
2018-03-22T06:18:18.770Z,19.90
2018-03-22T06:20:46.385Z,19.50
2018-03-22T06:23:14.737Z,19.50
2018-03-22T06:25:42.364Z,19.60
2018-03-22T06:28:09.966Z,19.50
2018-03-22T06:30:37.557Z,19.40
2018-03-22T06:33:05.140Z,19.30
2018-03-22T06:35:32.749Z,19.70
2018-03-22T06:38:00.372Z,19.30
2018-03-22T06:40:27.956Z,19.40
2018-03-22T06:42:55.560Z,19.10
2018-03-22T06:45:23.928Z,19.00
2018-03-22T06:47:51.514Z,19.00
2018-03-22T06:50:19.150Z,18.70
2018-03-22T06:52:46.745Z,18.50
2018-03-22T06:55:14.348Z,18.10
2018-03-22T06:57:42.727Z,17.90
2018-03-22T07:00:11.073Z,17.80
2018-03-22T07:02:38.667Z,17.80
2018-03-22T07:05:06.318Z,18.30
2018-03-22T07:07:33.917Z,17.10
2018-03-22T07:10:01.511Z,16.90
2018-03-22T07:12:29.896Z,16.50
2018-03-22T07:14:57.474Z,16.40
2018-03-22T07:17:25.846Z,15.70
2018-03-22T07:19:53.481Z,15.70
2018-03-22T07:22:21.073Z,14.70
2018-03-22T07:24:53.802Z,14.80
2018-03-22T07:27:21.476Z,14.50
2018-03-22T07:29:49.065Z,14.90
2018-03-22T07:32:17.426Z,14.30
2018-03-22T07:34:45.054Z,14.30
2018-03-22T07:37:12.636Z,14.90
2018-03-22T07:39:40.221Z,14.90
2018-03-22T07:42:07.857Z,15.00
2018-03-22T07:44:41.381Z,14.80
2018-03-22T07:47:09.012Z,15.00
2018-03-22T07:49:36.611Z,14.20
2018-03-22T07:52:04.984Z,14.90
2018-03-22T07:54:32.596Z,14.90
2018-03-22T07:57:00.300Z,14.70
2018-03-22T07:59:27.912Z,14.80
2018-03-22T08:01:55.537Z,15.50
2018-03-22T08:04:23.224Z,15.10
2018-03-22T08:06:51.100Z,15.10
2018-03-22T08:09:18.774Z,15.20
2018-03-22T08:11:46.368Z,15.30
2018-03-22T08:14:13.965Z,15.80
2018-03-22T08:16:42.378Z,17.60
2018-03-22T08:19:09.972Z,17.50
2018-03-22T08:21:37.565Z,18.50
2018-03-22T08:24:05.196Z,19.60
2018-03-22T08:26:32.781Z,20.40
2018-03-22T08:29:00.367Z,21.90
2018-03-22T08:31:27.983Z,22.90
2018-03-22T08:33:55.564Z,23.90
2018-03-22T08:36:23.930Z,24.70
2018-03-22T08:38:51.555Z,24.70
2018-03-22T08:41:19.170Z,25.00
2018-03-22T08:43:46.753Z,25.70
2018-03-22T08:46:14.392Z,27.40
2018-03-22T08:48:42.006Z,29.20
2018-03-22T08:51:09.587Z,30.50
2018-03-22T08:53:37.199Z,31.60
2018-03-22T08:56:04.796Z,32.20
2018-03-22T08:58:32.380Z,32.50
2018-03-22T09:01:00.061Z,33.00
2018-03-22T09:03:27.668Z,32.00
2018-03-22T09:05:56.024Z,30.20
2018-03-22T09:08:23.649Z,30.20
2018-03-22T09:10:51.275Z,29.40
2018-03-22T09:13:18.852Z,28.50
2018-03-22T09:15:46.480Z,27.70
2018-03-22T09:18:14.075Z,27.00
2018-03-22T09:20:41.681Z,26.50
2018-03-22T09:23:09.295Z,24.50
2018-03-22T09:25:36.893Z,24.80
2018-03-22T09:28:04.501Z,23.70
2018-03-22T09:30:32.124Z,23.80
2018-03-22T09:32:59.724Z,23.30
2018-03-22T09:35:27.359Z,22.80
2018-03-22T09:37:55.005Z,21.90
2018-03-22T09:40:22.587Z,20.40
2018-03-22T09:42:50.962Z,21.30
2018-03-22T09:45:18.585Z,21.30
2018-03-22T09:47:46.183Z,20.70
2018-03-22T09:50:13.835Z,20.80
2018-03-22T09:52:41.449Z,21.70
2018-03-22T09:55:09.040Z,21.40
2018-03-22T09:57:37.396Z,22.80
2018-03-22T10:00:05.053Z,22.80
2018-03-22T10:02:32.653Z,23.60
2018-03-22T10:05:00.252Z,26.40
2018-03-22T10:07:27.878Z,25.80
2018-03-22T10:09:55.463Z,25.50
2018-03-22T10:12:23.055Z,25.20
2018-03-22T10:14:50.687Z,25.00
2018-03-22T10:17:18.349Z,25.50
2018-03-22T10:19:45.947Z,24.50
2018-03-22T10:22:13.577Z,24.90
2018-03-22T10:24:41.169Z,26.30
2018-03-22T10:27:08.764Z,27.20
2018-03-22T10:29:36.391Z,26.70
2018-03-22T10:32:04.752Z,28.40
2018-03-22T10:34:32.347Z,28.40
2018-03-22T10:37:00.739Z,29.30
2018-03-22T10:39:28.338Z,28.70
2018-03-22T10:41:56.726Z,29.10
2018-03-22T10:44:24.330Z,29.10
2018-03-22T10:46:51.920Z,29.20
2018-03-22T10:49:19.520Z,29.20
2018-03-22T10:51:47.145Z,29.20
2018-03-22T10:54:14.752Z,28.90
2018-03-22T10:56:42.333Z,29.30
2018-03-22T10:59:09.955Z,29.30
2018-03-22T11:01:43.178Z,29.70
2018-03-22T11:04:10.811Z,30.30
2018-03-22T11:06:39.174Z,33.10
2018-03-22T11:09:06.961Z,33.10
2018-03-22T11:11:34.593Z,35.50
2018-03-22T11:14:02.180Z,37.80
2018-03-22T11:16:29.780Z,39.30
2018-03-22T11:18:57.412Z,40.20
2018-03-22T11:21:25.010Z,41.60
2018-03-22T11:23:52.643Z,43.20
2018-03-22T11:26:20.877Z,44.70
2018-03-22T11:28:48.460Z,45.90
2018-03-22T11:31:16.065Z,47.20
2018-03-22T11:33:44.451Z,48.10
2018-03-22T11:36:12.819Z,47.20
2018-03-22T11:38:40.401Z,47.30
2018-03-22T11:41:08.796Z,47.10
2018-03-22T11:43:37.176Z,47.50
2018-03-22T11:46:04.763Z,47.50
2018-03-22T11:48:32.399Z,47.90
2018-03-22T11:51:00.002Z,47.80
2018-03-22T11:53:27.622Z,47.80
2018-03-22T11:55:55.234Z,48.10
2018-03-22T11:58:22.835Z,48.40
2018-03-22T12:00:51.218Z,47.20
2018-03-22T12:03:18.840Z,47.20
2018-03-22T12:05:46.446Z,47.50
2018-03-22T12:08:14.036Z,48.80
2018-03-22T12:10:41.653Z,50.10
2018-03-22T12:13:09.257Z,50.00
2018-03-22T12:15:36.866Z,49.90
2018-03-22T12:18:05.262Z,49.20
2018-03-22T12:20:32.860Z,49.20
2018-03-22T12:23:00.436Z,49.40
2018-03-22T12:25:28.070Z,48.60
2018-03-22T12:27:55.666Z,47.70
2018-03-22T12:30:24.024Z,48.40
2018-03-22T12:32:51.643Z,48.40
2018-03-22T12:35:19.234Z,48.80
2018-03-22T12:37:46.824Z,47.70
2018-03-22T12:40:14.466Z,46.70
2018-03-22T12:42:42.043Z,46.30
2018-03-22T12:45:09.647Z,45.40
2018-03-22T12:47:37.265Z,45.60
2018-03-22T12:50:05.628Z,44.00
2018-03-22T12:52:33.250Z,44.00
2018-03-22T12:55:00.872Z,43.20
2018-03-22T12:57:28.454Z,42.90
2018-03-22T12:59:56.110Z,41.90
2018-03-22T13:02:23.738Z,41.00
2018-03-22T13:04:51.352Z,40.60
2018-03-22T13:07:18.944Z,40.40
2018-03-22T13:09:46.571Z,40.60
2018-03-22T13:12:14.157Z,41.30
2018-03-22T13:14:41.751Z,40.30
2018-03-22T13:17:09.373Z,39.60
2018-03-22T13:19:36.971Z,40.00
2018-03-22T13:22:04.563Z,40.10
2018-03-22T13:24:32.186Z,40.10
2018-03-22T13:26:59.784Z,40.40
2018-03-22T13:29:27.364Z,40.60
2018-03-22T13:31:54.969Z,40.50
2018-03-22T13:34:22.566Z,40.70
2018-03-22T13:36:50.945Z,42.80
2018-03-22T13:39:18.559Z,42.80
2018-03-22T13:41:46.164Z,47.30
2018-03-22T13:44:13.780Z,49.60
2018-03-22T13:46:42.176Z,47.50
2018-03-22T13:49:10.544Z,46.70
2018-03-22T13:51:38.145Z,46.70
2018-03-22T13:54:06.525Z,45.90
2018-03-22T13:56:34.885Z,48.80
2018-03-22T13:59:02.500Z,48.80
2018-03-22T14:01:30.887Z,52.20
2018-03-22T14:03:59.278Z,54.90
2018-03-22T14:06:26.905Z,54.80
2018-03-22T14:08:54.545Z,58.00
2018-03-22T14:11:22.132Z,64.10
2018-03-22T14:13:49.724Z,70.20
2018-03-22T14:16:17.344Z,75.00
2018-03-22T14:18:45.706Z,92.50
2018-03-22T14:21:14.388Z,92.60
2018-03-22T14:23:42.004Z,97.70
2018-03-22T14:26:10.472Z,99.90
2018-03-22T14:28:38.060Z,99.90
2018-03-22T14:31:05.713Z,99.90
2018-03-22T14:33:33.318Z,99.90
2018-03-22T14:36:01.678Z,99.90
2018-03-22T14:38:29.325Z,99.90
2018-03-22T14:40:56.930Z,99.90
2018-03-22T14:43:24.528Z,99.90
2018-03-22T14:45:52.159Z,99.90
2018-03-22T14:48:19.783Z,99.90
2018-03-22T14:50:48.201Z,99.90
2018-03-22T14:53:15.886Z,99.90
2018-03-22T14:55:43.507Z,99.90
2018-03-22T14:58:11.096Z,99.90
2018-03-22T15:00:39.478Z,99.90
2018-03-22T15:03:07.072Z,99.90
2018-03-22T15:05:34.675Z,99.90
2018-03-22T15:08:02.344Z,99.90
2018-03-22T15:10:30.721Z,99.90
2018-03-22T15:12:59.054Z,99.90
2018-03-22T15:15:26.724Z,99.90
2018-03-22T15:17:54.316Z,99.90
2018-03-22T15:20:22.075Z,99.90
2018-03-22T15:22:49.700Z,99.90
2018-03-22T15:25:18.081Z,99.90
2018-03-22T15:27:46.447Z,99.90
2018-03-22T15:30:14.085Z,99.90
2018-03-22T15:32:41.681Z,99.90
2018-03-22T15:35:09.266Z,99.90
2018-03-22T15:37:41.233Z,99.90
2018-03-22T15:40:10.912Z,99.90
2018-03-22T15:42:38.506Z,99.90
2018-03-22T15:45:06.138Z,99.90
2018-03-22T15:47:34.487Z,99.90
2018-03-22T15:50:02.071Z,99.90
2018-03-22T15:52:29.691Z,99.90
2018-03-22T15:54:57.296Z,99.90
2018-03-22T15:57:24.879Z,99.90
2018-03-22T15:59:52.503Z,99.90
2018-03-22T16:02:20.856Z,99.90
2018-03-22T16:04:48.500Z,99.90
2018-03-22T16:07:16.110Z,99.90
2018-03-22T16:09:43.772Z,99.90
2018-03-22T16:12:11.386Z,99.90
2018-03-22T16:14:39.769Z,99.90
2018-03-22T16:17:07.386Z,99.90
2018-03-22T16:19:34.980Z,99.90
2018-03-22T16:22:02.638Z,99.90
2018-03-22T16:24:30.236Z,99.90
2018-03-22T16:26:57.838Z,99.90
2018-03-22T16:29:26.225Z,99.90
2018-03-22T16:31:53.819Z,99.90
2018-03-22T16:34:22.176Z,99.90
2018-03-22T16:36:49.815Z,99.90
2018-03-22T16:39:17.404Z,99.90
2018-03-22T16:41:45.104Z,99.90
2018-03-22T16:44:12.738Z,99.90
2018-03-22T16:46:40.320Z,99.90
2018-03-22T16:49:07.929Z,99.90
2018-03-22T16:51:35.675Z,99.90
2018-03-22T16:54:03.280Z,99.90
2018-03-22T16:56:31.923Z,99.90
2018-03-22T16:58:59.545Z,99.90
2018-03-22T17:01:27.311Z,99.90
2018-03-22T17:03:54.928Z,99.90
2018-03-22T17:06:22.576Z,99.90
2018-03-22T17:08:50.241Z,99.90
2018-03-22T17:11:17.882Z,99.90
2018-03-22T17:13:45.537Z,99.90
2018-03-22T17:16:13.144Z,99.90
2018-03-22T17:18:40.732Z,99.90
2018-03-22T17:21:08.344Z,99.90
2018-03-22T17:23:36.685Z,99.90
2018-03-22T17:26:04.282Z,99.90
2018-03-22T17:28:31.906Z,99.90
2018-03-22T17:30:59.502Z,99.90
2018-03-22T17:33:27.102Z,99.90
2018-03-22T17:35:54.724Z,99.90
2018-03-22T17:38:22.319Z,99.90
2018-03-22T17:40:49.896Z,99.90
2018-03-22T17:43:17.514Z,99.90
2018-03-22T17:45:45.872Z,99.90
2018-03-22T17:48:13.481Z,99.90
2018-03-22T17:50:41.878Z,99.90
2018-03-22T17:53:10.241Z,99.90
2018-03-22T17:55:37.843Z,99.90
2018-03-22T17:58:06.236Z,99.90
2018-03-22T18:00:33.911Z,99.90
2018-03-22T18:03:01.511Z,99.90
2018-03-22T18:05:29.152Z,99.90
2018-03-22T18:07:57.516Z,99.90
2018-03-22T18:10:25.111Z,99.90
2018-03-22T18:12:53.526Z,99.90
2018-03-22T18:15:21.144Z,99.90
2018-03-22T18:17:48.738Z,99.90
2018-03-22T18:20:16.366Z,99.90
2018-03-22T18:22:43.974Z,99.90
2018-03-22T18:25:11.583Z,99.90
2018-03-22T18:27:39.967Z,99.90
2018-03-22T18:30:08.320Z,99.90
2018-03-22T18:32:35.908Z,99.90
2018-03-22T18:35:03.566Z,99.90
2018-03-22T18:37:31.162Z,99.90
2018-03-22T18:39:58.778Z,99.90
2018-03-22T18:42:26.456Z,99.90
2018-03-22T18:44:54.793Z,99.90
2018-03-22T18:47:22.389Z,99.90
2018-03-22T18:49:50.767Z,99.90
2018-03-22T18:52:18.354Z,99.90
2018-03-22T18:54:46.700Z,99.90
2018-03-22T18:57:14.332Z,99.90
2018-03-22T18:59:42.734Z,99.90
2018-03-22T19:02:10.344Z,99.90
2018-03-22T19:04:37.956Z,99.90
2018-03-22T19:07:05.547Z,99.90
2018-03-22T19:09:33.896Z,99.90
2018-03-22T19:12:01.643Z,99.90
2018-03-22T19:14:29.233Z,99.90
2018-03-22T19:16:56.852Z,99.90
2018-03-22T19:19:25.257Z,99.90
2018-03-22T19:21:53.609Z,99.90
2018-03-22T19:24:21.207Z,99.90
2018-03-22T19:26:48.845Z,99.90
2018-03-22T19:29:16.435Z,99.90
2018-03-22T19:31:44.204Z,99.90
2018-03-22T19:34:11.820Z,99.90
2018-03-22T19:36:40.233Z,99.90
2018-03-22T19:39:07.902Z,99.90
2018-03-22T19:41:36.283Z,99.90
2018-03-22T19:44:04.642Z,99.90
2018-03-22T19:46:32.434Z,99.90
2018-03-22T19:49:00.058Z,99.90
2018-03-22T19:51:27.640Z,99.90
2018-03-22T19:53:55.232Z,99.90
2018-03-22T19:56:22.856Z,99.90
2018-03-22T19:58:51.233Z,99.90
2018-03-22T20:01:19.590Z,99.90
2018-03-22T20:03:47.208Z,99.90
2018-03-22T20:06:14.817Z,99.90
2018-03-22T20:08:42.405Z,99.90
2018-03-22T20:11:10.080Z,99.90
2018-03-22T20:13:37.752Z,99.90
2018-03-22T20:16:05.382Z,99.90
2018-03-22T20:18:33.019Z,99.90
2018-03-22T20:21:01.702Z,99.90
2018-03-22T20:23:29.310Z,99.90
2018-03-22T20:25:57.719Z,99.90
2018-03-22T20:28:26.191Z,99.90
2018-03-22T20:30:53.788Z,99.90
2018-03-22T20:33:22.444Z,99.90
2018-03-22T20:35:50.922Z,99.90
2018-03-22T20:38:18.523Z,99.90
2018-03-22T20:40:46.423Z,99.90
2018-03-22T20:43:14.157Z,99.90
2018-03-22T20:45:41.777Z,99.90
2018-03-22T20:48:10.197Z,99.90
2018-03-22T20:50:37.807Z,99.90
2018-03-22T20:53:05.394Z,99.90
2018-03-22T20:55:33.354Z,99.90
2018-03-22T20:58:00.971Z,99.90
2018-03-22T21:00:29.351Z,99.90
2018-03-22T21:02:57.005Z,99.90
2018-03-22T21:05:24.588Z,99.90
2018-03-22T21:07:52.419Z,99.90
2018-03-22T21:10:20.056Z,99.90
2018-03-22T21:12:49.354Z,99.90
2018-03-22T21:15:16.980Z,99.90
2018-03-22T21:17:44.660Z,99.90
2018-03-22T21:20:12.450Z,99.90
2018-03-22T21:22:40.548Z,99.90
2018-03-22T21:25:08.976Z,99.90
2018-03-22T21:27:37.334Z,99.90
2018-03-22T21:30:04.956Z,99.90
2018-03-22T21:32:32.582Z,99.90
2018-03-22T21:35:00.344Z,99.90
2018-03-22T21:37:28.292Z,99.90
2018-03-22T21:39:55.996Z,99.90
2018-03-22T21:42:23.589Z,99.90
2018-03-22T21:44:51.180Z,99.90
2018-03-22T21:47:30.793Z,99.90
2018-03-22T21:49:58.666Z,99.90
2018-03-22T21:52:38.340Z,99.90
2018-03-22T21:55:05.933Z,99.90
2018-03-22T21:57:33.837Z,99.90
2018-03-22T22:00:02.626Z,99.90
2018-03-22T22:02:30.273Z,99.90
2018-03-22T22:04:57.909Z,99.90
2018-03-22T22:07:25.481Z,99.90
2018-03-22T22:09:53.069Z,99.90
2018-03-22T22:12:20.656Z,99.90
2018-03-22T22:14:48.316Z,99.90
2018-03-22T22:17:15.896Z,99.90
2018-03-22T22:19:43.478Z,99.90
2018-03-22T22:22:11.082Z,99.90
2018-03-22T22:24:38.734Z,99.90
2018-03-22T22:27:06.321Z,99.90
2018-03-22T22:29:33.927Z,99.90
2018-03-22T22:32:02.280Z,99.90
2018-03-22T22:34:29.873Z,99.90
2018-03-22T22:36:57.497Z,99.90
2018-03-22T22:39:25.093Z,99.90
2018-03-22T22:41:52.683Z,99.90
2018-03-22T22:44:20.309Z,99.90
2018-03-22T22:46:47.901Z,99.90
2018-03-22T22:49:15.480Z,99.90
2018-03-22T22:51:43.090Z,99.90
2018-03-22T22:54:10.681Z,99.90
2018-03-22T22:56:38.271Z,99.90
2018-03-22T22:59:05.881Z,99.90
2018-03-22T23:01:33.465Z,99.90
2018-03-22T23:04:01.066Z,99.90
2018-03-22T23:06:29.445Z,99.90
2018-03-22T23:08:57.803Z,99.90
2018-03-22T23:11:25.471Z,99.90
2018-03-22T23:13:53.147Z,99.90
2018-03-22T23:16:21.325Z,99.90
2018-03-22T23:18:48.912Z,99.90
2018-03-22T23:21:16.524Z,99.90
2018-03-22T23:23:44.890Z,99.90
2018-03-22T23:26:12.468Z,99.90
2018-03-22T23:28:40.072Z,99.90
2018-03-22T23:31:08.512Z,99.90
2018-03-22T23:33:36.091Z,99.90
2018-03-22T23:36:03.704Z,99.90
2018-03-22T23:38:32.057Z,99.90
2018-03-22T23:40:59.649Z,99.90
2018-03-22T23:43:27.258Z,99.90
2018-03-22T23:45:54.864Z,99.90
2018-03-22T23:48:22.453Z,99.90
2018-03-22T23:50:50.092Z,99.90
2018-03-22T23:53:17.681Z,99.90
2018-03-22T23:55:45.295Z,99.90
2018-03-22T23:58:12.903Z,99.90
